sensor_id;sensor_type;location;lat;lon;timestamp;P1;durP1;ratioP1;P2;durP2;ratioP2
10910;SDS011;5508;49.150;11.030;2022-11-13T00:00:21;79.27;;;10.00;;
10910;SDS011;5508;49.150;11.030;2022-11-13T00:03:21;51.50;;;9.13;;
10910;SDS011;5508;49.150;11.030;2022-11-13T00:06:22;59.07;;;9.60;;
10910;SDS011;5508;49.150;11.030;2022-11-13T00:09:23;49.83;;;9.03;;
10910;SDS011;5508;49.150;11.030;2022-11-13T00:12:23;31.13;;;8.93;;
10910;SDS011;5508;49.150;11.030;2022-11-13T00:15:24;47.30;;;8.87;;
10910;SDS011;5508;49.150;11.030;2022-11-13T00:18:25;67.83;;;10.07;;
10910;SDS011;5508;49.150;11.030;2022-11-13T00:21:25;50.73;;;9.10;;
10910;SDS011;5508;49.150;11.030;2022-11-13T00:24:26;61.97;;;10.63;;
10910;SDS011;5508;49.150;11.030;2022-11-13T00:27:28;30.70;;;10.20;;
10910;SDS011;5508;49.150;11.030;2022-11-13T00:30:30;27.87;;;8.80;;
10910;SDS011;5508;49.150;11.030;2022-11-13T00:33:30;37.80;;;8.57;;
10910;SDS011;5508;49.150;11.030;2022-11-13T00:36:31;68.73;;;9.53;;
10910;SDS011;5508;49.150;11.030;2022-11-13T00:39:32;55.40;;;8.33;;
10910;SDS011;5508;49.150;11.030;2022-11-13T00:42:32;78.43;;;10.40;;
10910;SDS011;5508;49.150;11.030;2022-11-13T00:45:33;88.47;;;10.63;;
10910;SDS011;5508;49.150;11.030;2022-11-13T00:48:34;65.50;;;9.70;;
10910;SDS011;5508;49.150;11.030;2022-11-13T00:51:35;54.43;;;9.47;;
10910;SDS011;5508;49.150;11.030;2022-11-13T00:54:35;142.87;;;11.03;;
10910;SDS011;5508;49.150;11.030;2022-11-13T00:57:36;118.97;;;10.70;;
10910;SDS011;5508;49.150;11.030;2022-11-13T01:00:37;263.53;;;16.20;;
10910;SDS011;5508;49.150;11.030;2022-11-13T01:03:38;155.93;;;11.17;;
10910;SDS011;5508;49.150;11.030;2022-11-13T01:06:39;119.80;;;10.33;;
10910;SDS011;5508;49.150;11.030;2022-11-13T01:09:39;77.87;;;9.20;;
10910;SDS011;5508;49.150;11.030;2022-11-13T01:12:40;117.97;;;10.90;;
10910;SDS011;5508;49.150;11.030;2022-11-13T01:15:41;117.73;;;11.20;;
10910;SDS011;5508;49.150;11.030;2022-11-13T01:18:43;103.93;;;9.67;;
10910;SDS011;5508;49.150;11.030;2022-11-13T01:21:45;86.27;;;9.23;;
10910;SDS011;5508;49.150;11.030;2022-11-13T01:24:46;208.07;;;13.37;;
10910;SDS011;5508;49.150;11.030;2022-11-13T01:27:46;120.33;;;10.63;;
10910;SDS011;5508;49.150;11.030;2022-11-13T01:30:47;96.03;;;9.33;;
10910;SDS011;5508;49.150;11.030;2022-11-13T01:33:48;67.67;;;9.23;;
10910;SDS011;5508;49.150;11.030;2022-11-13T01:36:48;52.80;;;12.63;;
10910;SDS011;5508;49.150;11.030;2022-11-13T01:39:49;14.53;;;8.20;;
10910;SDS011;5508;49.150;11.030;2022-11-13T01:42:50;10.60;;;6.70;;
10910;SDS011;5508;49.150;11.030;2022-11-13T01:52:25;22.83;;;8.00;;
10910;SDS011;5508;49.150;11.030;2022-11-13T01:55:37;57.83;;;12.23;;
10910;SDS011;5508;49.150;11.030;2022-11-13T01:58:38;33.40;;;11.50;;
10910;SDS011;5508;49.150;11.030;2022-11-13T02:01:40;55.53;;;13.67;;
10910;SDS011;5508;49.150;11.030;2022-11-13T02:04:41;37.00;;;13.93;;
10910;SDS011;5508;49.150;11.030;2022-11-13T02:07:42;30.73;;;12.80;;
10910;SDS011;5508;49.150;11.030;2022-11-13T02:10:42;72.00;;;13.83;;
10910;SDS011;5508;49.150;11.030;2022-11-13T02:13:43;45.93;;;10.83;;
10910;SDS011;5508;49.150;11.030;2022-11-13T02:16:45;40.17;;;10.80;;
10910;SDS011;5508;49.150;11.030;2022-11-13T02:19:48;101.93;;;11.73;;
10910;SDS011;5508;49.150;11.030;2022-11-13T02:23:07;24.30;;;9.33;;
10910;SDS011;5508;49.150;11.030;2022-11-13T02:26:19;47.87;;;9.80;;
10910;SDS011;5508;49.150;11.030;2022-11-13T02:29:22;79.37;;;12.23;;
10910;SDS011;5508;49.150;11.030;2022-11-13T02:32:23;37.40;;;10.23;;
10910;SDS011;5508;49.150;11.030;2022-11-13T02:38:26;19.53;;;9.53;;
10910;SDS011;5508;49.150;11.030;2022-11-13T02:41:27;19.53;;;9.00;;
10910;SDS011;5508;49.150;11.030;2022-11-13T02:44:27;23.17;;;9.17;;
10910;SDS011;5508;49.150;11.030;2022-11-13T02:47:28;13.77;;;8.43;;
10910;SDS011;5508;49.150;11.030;2022-11-13T02:50:28;22.63;;;9.17;;
10910;SDS011;5508;49.150;11.030;2022-11-13T02:53:29;14.63;;;8.80;;
10910;SDS011;5508;49.150;11.030;2022-11-13T02:56:30;30.57;;;9.63;;
10910;SDS011;5508;49.150;11.030;2022-11-13T02:59:31;27.13;;;9.50;;
10910;SDS011;5508;49.150;11.030;2022-11-13T03:02:31;38.63;;;11.83;;
10910;SDS011;5508;49.150;11.030;2022-11-13T03:05:32;13.67;;;9.10;;
10910;SDS011;5508;49.150;11.030;2022-11-13T03:08:33;20.20;;;10.07;;
10910;SDS011;5508;49.150;11.030;2022-11-13T03:11:33;31.47;;;11.27;;
10910;SDS011;5508;49.150;11.030;2022-11-13T03:14:34;27.10;;;11.23;;
10910;SDS011;5508;49.150;11.030;2022-11-13T03:17:35;14.20;;;9.67;;
10910;SDS011;5508;49.150;11.030;2022-11-13T03:20:36;15.80;;;9.83;;
10910;SDS011;5508;49.150;11.030;2022-11-13T03:23:39;14.77;;;10.63;;
10910;SDS011;5508;49.150;11.030;2022-11-13T03:26:40;11.80;;;8.90;;
10910;SDS011;5508;49.150;11.030;2022-11-13T03:29:41;15.23;;;7.83;;
10910;SDS011;5508;49.150;11.030;2022-11-13T03:32:41;13.40;;;9.10;;
10910;SDS011;5508;49.150;11.030;2022-11-13T03:35:42;10.83;;;8.40;;
10910;SDS011;5508;49.150;11.030;2022-11-13T03:38:43;26.37;;;15.93;;
10910;SDS011;5508;49.150;11.030;2022-11-13T03:41:43;26.97;;;17.47;;
10910;SDS011;5508;49.150;11.030;2022-11-13T03:44:44;15.70;;;10.83;;
10910;SDS011;5508;49.150;11.030;2022-11-13T03:47:44;11.63;;;8.93;;
10910;SDS011;5508;49.150;11.030;2022-11-13T03:50:47;11.30;;;8.27;;
10910;SDS011;5508;49.150;11.030;2022-11-13T03:53:49;10.73;;;7.90;;
10910;SDS011;5508;49.150;11.030;2022-11-13T03:56:50;9.27;;;7.70;;
10910;SDS011;5508;49.150;11.030;2022-11-13T03:59:50;11.33;;;8.57;;
10910;SDS011;5508;49.150;11.030;2022-11-13T04:02:51;9.90;;;8.43;;
10910;SDS011;5508;49.150;11.030;2022-11-13T04:05:52;8.33;;;7.47;;
10910;SDS011;5508;49.150;11.030;2022-11-13T04:08:52;10.40;;;7.57;;
10910;SDS011;5508;49.150;11.030;2022-11-13T04:11:53;9.53;;;8.07;;
10910;SDS011;5508;49.150;11.030;2022-11-13T04:14:53;7.53;;;6.73;;
10910;SDS011;5508;49.150;11.030;2022-11-13T04:17:54;7.67;;;6.87;;
10910;SDS011;5508;49.150;11.030;2022-11-13T04:21:01;10.43;;;7.90;;
10910;SDS011;5508;49.150;11.030;2022-11-13T04:24:03;9.30;;;7.90;;
10910;SDS011;5508;49.150;11.030;2022-11-13T04:27:04;10.20;;;7.93;;
10910;SDS011;5508;49.150;11.030;2022-11-13T04:30:04;7.93;;;6.37;;
10910;SDS011;5508;49.150;11.030;2022-11-13T04:33:05;8.03;;;7.23;;
10910;SDS011;5508;49.150;11.030;2022-11-13T04:36:06;9.20;;;8.10;;
10910;SDS011;5508;49.150;11.030;2022-11-13T04:39:07;9.30;;;8.03;;
10910;SDS011;5508;49.150;11.030;2022-11-13T04:42:08;9.40;;;8.50;;
10910;SDS011;5508;49.150;11.030;2022-11-13T04:45:28;9.17;;;8.13;;
10910;SDS011;5508;49.150;11.030;2022-11-13T04:48:29;11.87;;;9.87;;
10910;SDS011;5508;49.150;11.030;2022-11-13T04:51:30;10.20;;;9.20;;
10910;SDS011;5508;49.150;11.030;2022-11-13T04:54:31;12.73;;;8.10;;
10910;SDS011;5508;49.150;11.030;2022-11-13T04:57:31;8.63;;;7.73;;
10910;SDS011;5508;49.150;11.030;2022-11-13T05:00:32;10.57;;;9.47;;
10910;SDS011;5508;49.150;11.030;2022-11-13T05:03:32;8.60;;;7.70;;
10910;SDS011;5508;49.150;11.030;2022-11-13T05:06:33;11.77;;;8.13;;
10910;SDS011;5508;49.150;11.030;2022-11-13T05:09:33;8.90;;;7.83;;
10910;SDS011;5508;49.150;11.030;2022-11-13T05:12:34;9.07;;;7.23;;
10910;SDS011;5508;49.150;11.030;2022-11-13T05:15:34;7.87;;;7.07;;
10910;SDS011;5508;49.150;11.030;2022-11-13T05:18:36;7.57;;;6.47;;
10910;SDS011;5508;49.150;11.030;2022-11-13T05:21:37;8.47;;;6.40;;
10910;SDS011;5508;49.150;11.030;2022-11-13T05:24:38;7.27;;;6.33;;
10910;SDS011;5508;49.150;11.030;2022-11-13T05:27:39;7.07;;;6.00;;
10910;SDS011;5508;49.150;11.030;2022-11-13T05:30:39;6.97;;;6.27;;
10910;SDS011;5508;49.150;11.030;2022-11-13T05:33:40;7.17;;;6.30;;
10910;SDS011;5508;49.150;11.030;2022-11-13T05:36:41;6.87;;;5.93;;
10910;SDS011;5508;49.150;11.030;2022-11-13T05:39:42;7.67;;;6.87;;
10910;SDS011;5508;49.150;11.030;2022-11-13T05:42:43;8.27;;;6.80;;
10910;SDS011;5508;49.150;11.030;2022-11-13T05:45:43;8.97;;;7.83;;
10910;SDS011;5508;49.150;11.030;2022-11-13T05:48:44;9.63;;;8.20;;
10910;SDS011;5508;49.150;11.030;2022-11-13T05:51:45;8.73;;;7.83;;
10910;SDS011;5508;49.150;11.030;2022-11-13T05:54:46;10.33;;;8.80;;
10910;SDS011;5508;49.150;11.030;2022-11-13T05:57:46;9.30;;;7.07;;
10910;SDS011;5508;49.150;11.030;2022-11-13T06:00:47;6.77;;;6.07;;
10910;SDS011;5508;49.150;11.030;2022-11-13T06:03:48;7.23;;;6.47;;
10910;SDS011;5508;49.150;11.030;2022-11-13T06:06:49;8.87;;;7.47;;
10910;SDS011;5508;49.150;11.030;2022-11-13T06:09:49;11.90;;;8.40;;
10910;SDS011;5508;49.150;11.030;2022-11-13T06:12:50;10.80;;;8.50;;
10910;SDS011;5508;49.150;11.030;2022-11-13T06:15:50;28.13;;;20.17;;
10910;SDS011;5508;49.150;11.030;2022-11-13T06:18:55;26.57;;;19.57;;
10910;SDS011;5508;49.150;11.030;2022-11-13T06:21:57;14.07;;;11.27;;
10910;SDS011;5508;49.150;11.030;2022-11-13T06:24:57;13.87;;;11.13;;
10910;SDS011;5508;49.150;11.030;2022-11-13T06:27:58;11.90;;;9.50;;
10910;SDS011;5508;49.150;11.030;2022-11-13T06:31:09;11.03;;;9.07;;
10910;SDS011;5508;49.150;11.030;2022-11-13T06:34:14;14.47;;;11.20;;
10910;SDS011;5508;49.150;11.030;2022-11-13T06:37:15;23.03;;;13.30;;
10910;SDS011;5508;49.150;11.030;2022-11-13T06:40:15;19.63;;;13.80;;
10910;SDS011;5508;49.150;11.030;2022-11-13T06:43:16;18.13;;;12.53;;
10910;SDS011;5508;49.150;11.030;2022-11-13T06:46:17;12.80;;;10.77;;
10910;SDS011;5508;49.150;11.030;2022-11-13T06:49:20;11.90;;;9.33;;
10910;SDS011;5508;49.150;11.030;2022-11-13T06:52:21;28.17;;;18.57;;
10910;SDS011;5508;49.150;11.030;2022-11-13T06:55:22;30.27;;;20.37;;
10910;SDS011;5508;49.150;11.030;2022-11-13T06:58:23;47.87;;;28.73;;
10910;SDS011;5508;49.150;11.030;2022-11-13T07:01:24;32.03;;;22.37;;
10910;SDS011;5508;49.150;11.030;2022-11-13T07:04:26;32.77;;;21.27;;
10910;SDS011;5508;49.150;11.030;2022-11-13T07:07:26;29.90;;;21.43;;
10910;SDS011;5508;49.150;11.030;2022-11-13T07:10:27;28.60;;;20.60;;
10910;SDS011;5508;49.150;11.030;2022-11-13T07:13:27;26.27;;;20.20;;
10910;SDS011;5508;49.150;11.030;2022-11-13T07:16:28;24.90;;;18.73;;
10910;SDS011;5508;49.150;11.030;2022-11-13T07:19:28;21.90;;;15.73;;
10910;SDS011;5508;49.150;11.030;2022-11-13T07:22:29;31.67;;;20.37;;
10910;SDS011;5508;49.150;11.030;2022-11-13T07:25:30;33.57;;;23.00;;
10910;SDS011;5508;49.150;11.030;2022-11-13T07:28:31;30.20;;;20.90;;
10910;SDS011;5508;49.150;11.030;2022-11-13T07:31:32;25.70;;;17.90;;
10910;SDS011;5508;49.150;11.030;2022-11-13T07:34:32;24.33;;;17.80;;
10910;SDS011;5508;49.150;11.030;2022-11-13T07:37:33;42.23;;;22.60;;
10910;SDS011;5508;49.150;11.030;2022-11-13T07:40:33;37.97;;;22.93;;
10910;SDS011;5508;49.150;11.030;2022-11-13T07:43:34;27.97;;;19.23;;
10910;SDS011;5508;49.150;11.030;2022-11-13T07:46:34;29.43;;;21.07;;
10910;SDS011;5508;49.150;11.030;2022-11-13T07:49:35;29.23;;;21.07;;
10910;SDS011;5508;49.150;11.030;2022-11-13T07:52:35;31.27;;;20.93;;
10910;SDS011;5508;49.150;11.030;2022-11-13T07:55:36;19.67;;;16.70;;
10910;SDS011;5508;49.150;11.030;2022-11-13T07:58:37;17.23;;;15.27;;
10910;SDS011;5508;49.150;11.030;2022-11-13T08:01:37;12.87;;;11.57;;
10910;SDS011;5508;49.150;11.030;2022-11-13T08:04:38;13.77;;;12.30;;
10910;SDS011;5508;49.150;11.030;2022-11-13T08:07:38;30.47;;;22.33;;
10910;SDS011;5508;49.150;11.030;2022-11-13T08:10:39;22.47;;;18.13;;
10910;SDS011;5508;49.150;11.030;2022-11-13T08:13:40;19.27;;;14.70;;
10910;SDS011;5508;49.150;11.030;2022-11-13T08:16:41;29.40;;;14.67;;
10910;SDS011;5508;49.150;11.030;2022-11-13T08:19:41;19.70;;;16.27;;
10910;SDS011;5508;49.150;11.030;2022-11-13T08:22:42;39.27;;;29.33;;
10910;SDS011;5508;49.150;11.030;2022-11-13T08:25:42;15.07;;;13.03;;
10910;SDS011;5508;49.150;11.030;2022-11-13T08:28:43;13.27;;;10.77;;
10910;SDS011;5508;49.150;11.030;2022-11-13T08:31:44;16.83;;;11.87;;
10910;SDS011;5508;49.150;11.030;2022-11-13T08:34:45;13.73;;;11.90;;
10910;SDS011;5508;49.150;11.030;2022-11-13T08:37:45;14.23;;;11.57;;
10910;SDS011;5508;49.150;11.030;2022-11-13T08:40:46;13.93;;;11.40;;
10910;SDS011;5508;49.150;11.030;2022-11-13T08:43:47;16.10;;;13.10;;
10910;SDS011;5508;49.150;11.030;2022-11-13T08:46:48;11.63;;;10.13;;
10910;SDS011;5508;49.150;11.030;2022-11-13T08:49:48;10.97;;;9.80;;
10910;SDS011;5508;49.150;11.030;2022-11-13T08:52:52;10.47;;;9.37;;
10910;SDS011;5508;49.150;11.030;2022-11-13T08:55:58;16.23;;;12.03;;
10910;SDS011;5508;49.150;11.030;2022-11-13T08:58:59;13.27;;;11.90;;
10910;SDS011;5508;49.150;11.030;2022-11-13T09:02:00;12.53;;;11.23;;
10910;SDS011;5508;49.150;11.030;2022-11-13T09:05:00;10.73;;;9.73;;
10910;SDS011;5508;49.150;11.030;2022-11-13T09:08:01;12.43;;;11.13;;
10910;SDS011;5508;49.150;11.030;2022-11-13T09:11:03;17.40;;;13.53;;
10910;SDS011;5508;49.150;11.030;2022-11-13T09:14:04;14.20;;;11.47;;
10910;SDS011;5508;49.150;11.030;2022-11-13T09:17:05;28.70;;;16.70;;
10910;SDS011;5508;49.150;11.030;2022-11-13T09:20:06;18.70;;;12.70;;
10910;SDS011;5508;49.150;11.030;2022-11-13T09:23:07;17.67;;;13.90;;
10910;SDS011;5508;49.150;11.030;2022-11-13T09:26:08;17.67;;;13.80;;
10910;SDS011;5508;49.150;11.030;2022-11-13T09:29:09;16.80;;;11.53;;
10910;SDS011;5508;49.150;11.030;2022-11-13T09:32:10;20.27;;;12.57;;
10910;SDS011;5508;49.150;11.030;2022-11-13T09:35:10;11.07;;;9.30;;
10910;SDS011;5508;49.150;11.030;2022-11-13T09:38:12;12.30;;;10.73;;
10910;SDS011;5508;49.150;11.030;2022-11-13T09:41:16;10.17;;;9.10;;
10910;SDS011;5508;49.150;11.030;2022-11-13T09:47:36;9.87;;;8.20;;
10910;SDS011;5508;49.150;11.030;2022-11-13T09:50:41;9.30;;;8.23;;
10910;SDS011;5508;49.150;11.030;2022-11-13T09:53:42;10.43;;;8.43;;
10910;SDS011;5508;49.150;11.030;2022-11-13T10:00:09;9.83;;;8.83;;
10910;SDS011;5508;49.150;11.030;2022-11-13T10:13:43;9.27;;;6.73;;
10910;SDS011;5508;49.150;11.030;2022-11-13T10:16:55;14.47;;;10.70;;
10910;SDS011;5508;49.150;11.030;2022-11-13T10:23:43;8.03;;;6.97;;
10910;SDS011;5508;49.150;11.030;2022-11-13T10:26:49;7.80;;;7.00;;
10910;SDS011;5508;49.150;11.030;2022-11-13T10:29:50;8.00;;;7.20;;
10910;SDS011;5508;49.150;11.030;2022-11-13T10:32:50;8.40;;;7.60;;
10910;SDS011;5508;49.150;11.030;2022-11-13T10:35:58;8.13;;;7.27;;
10910;SDS011;5508;49.150;11.030;2022-11-13T10:39:07;7.90;;;7.10;;
10910;SDS011;5508;49.150;11.030;2022-11-13T10:42:21;9.30;;;8.03;;
10910;SDS011;5508;49.150;11.030;2022-11-13T10:45:36;9.63;;;8.63;;
10910;SDS011;5508;49.150;11.030;2022-11-13T10:48:37;8.93;;;7.90;;
10910;SDS011;5508;49.150;11.030;2022-11-13T10:51:37;8.60;;;7.40;;
10910;SDS011;5508;49.150;11.030;2022-11-13T10:54:38;7.33;;;6.07;;
10910;SDS011;5508;49.150;11.030;2022-11-13T10:57:39;11.47;;;6.00;;
10910;SDS011;5508;49.150;11.030;2022-11-13T11:00:39;7.33;;;6.23;;
10910;SDS011;5508;49.150;11.030;2022-11-13T11:03:49;6.83;;;6.13;;
10910;SDS011;5508;49.150;11.030;2022-11-13T11:06:50;8.67;;;6.30;;
10910;SDS011;5508;49.150;11.030;2022-11-13T11:09:51;5.90;;;5.07;;
10910;SDS011;5508;49.150;11.030;2022-11-13T11:12:55;7.53;;;5.23;;
10910;SDS011;5508;49.150;11.030;2022-11-13T11:16:00;10.73;;;8.40;;
10910;SDS011;5508;49.150;11.030;2022-11-13T11:19:04;6.27;;;5.63;;
10910;SDS011;5508;49.150;11.030;2022-11-13T11:22:17;6.23;;;4.80;;
10910;SDS011;5508;49.150;11.030;2022-11-13T11:32:22;5.27;;;4.20;;
10910;SDS011;5508;49.150;11.030;2022-11-13T11:35:34;5.00;;;4.27;;
10910;SDS011;5508;49.150;11.030;2022-11-13T11:45:39;4.77;;;4.03;;
10910;SDS011;5508;49.150;11.030;2022-11-13T11:48:42;5.30;;;4.07;;
10910;SDS011;5508;49.150;11.030;2022-11-13T11:55:17;4.73;;;3.67;;
10910;SDS011;5508;49.150;11.030;2022-11-13T12:11:29;4.13;;;3.53;;
10910;SDS011;5508;49.150;11.030;2022-11-13T12:17:57;4.47;;;3.10;;
10910;SDS011;5508;49.150;11.030;2022-11-13T12:21:02;6.20;;;3.60;;
10910;SDS011;5508;49.150;11.030;2022-11-13T12:24:12;5.13;;;3.73;;
10910;SDS011;5508;49.150;11.030;2022-11-13T12:34:35;3.27;;;2.47;;
10910;SDS011;5508;49.150;11.030;2022-11-13T12:47:12;3.63;;;2.43;;
10910;SDS011;5508;49.150;11.030;2022-11-13T12:53:28;3.50;;;2.90;;
10910;SDS011;5508;49.150;11.030;2022-11-13T12:56:31;2.90;;;2.50;;
10910;SDS011;5508;49.150;11.030;2022-11-13T12:59:33;2.53;;;2.33;;
10910;SDS011;5508;49.150;11.030;2022-11-13T13:02:46;2.63;;;2.23;;
10910;SDS011;5508;49.150;11.030;2022-11-13T13:15:57;4.73;;;3.23;;
10910;SDS011;5508;49.150;11.030;2022-11-13T13:19:06;3.20;;;2.73;;
10910;SDS011;5508;49.150;11.030;2022-11-13T13:22:26;2.93;;;2.00;;
10910;SDS011;5508;49.150;11.030;2022-11-13T13:25:33;3.10;;;2.30;;
10910;SDS011;5508;49.150;11.030;2022-11-13T13:28:37;3.07;;;2.37;;
10910;SDS011;5508;49.150;11.030;2022-11-13T13:47:58;3.60;;;2.83;;
10910;SDS011;5508;49.150;11.030;2022-11-13T13:51:00;6.00;;;2.90;;
10910;SDS011;5508;49.150;11.030;2022-11-13T13:54:04;3.03;;;2.60;;
10910;SDS011;5508;49.150;11.030;2022-11-13T13:57:08;2.87;;;2.57;;
10910;SDS011;5508;49.150;11.030;2022-11-13T14:00:12;3.20;;;2.43;;
10910;SDS011;5508;49.150;11.030;2022-11-13T14:03:19;2.90;;;2.60;;
10910;SDS011;5508;49.150;11.030;2022-11-13T14:06:22;4.33;;;2.57;;
10910;SDS011;5508;49.150;11.030;2022-11-13T14:09:24;2.93;;;2.50;;
10910;SDS011;5508;49.150;11.030;2022-11-13T14:12:26;2.63;;;2.40;;
10910;SDS011;5508;49.150;11.030;2022-11-13T14:18:27;4.23;;;3.17;;
10910;SDS011;5508;49.150;11.030;2022-11-13T14:21:28;3.30;;;3.00;;
10910;SDS011;5508;49.150;11.030;2022-11-13T14:24:32;3.20;;;2.87;;
10910;SDS011;5508;49.150;11.030;2022-11-13T14:27:41;4.93;;;3.10;;
10910;SDS011;5508;49.150;11.030;2022-11-13T14:30:41;4.23;;;3.27;;
10910;SDS011;5508;49.150;11.030;2022-11-13T14:33:43;17.27;;;3.47;;
10910;SDS011;5508;49.150;11.030;2022-11-13T14:36:46;3.93;;;3.20;;
10910;SDS011;5508;49.150;11.030;2022-11-13T14:39:47;6.00;;;3.00;;
10910;SDS011;5508;49.150;11.030;2022-11-13T14:42:52;3.80;;;3.47;;
10910;SDS011;5508;49.150;11.030;2022-11-13T14:45:58;7.17;;;3.77;;
10910;SDS011;5508;49.150;11.030;2022-11-13T14:49:03;5.13;;;3.87;;
10910;SDS011;5508;49.150;11.030;2022-11-13T14:52:27;4.23;;;3.50;;
10910;SDS011;5508;49.150;11.030;2022-11-13T14:55:30;4.73;;;3.67;;
10910;SDS011;5508;49.150;11.030;2022-11-13T14:58:51;5.53;;;3.73;;
10910;SDS011;5508;49.150;11.030;2022-11-13T15:01:52;6.03;;;3.80;;
10910;SDS011;5508;49.150;11.030;2022-11-13T15:04:54;4.43;;;3.60;;
10910;SDS011;5508;49.150;11.030;2022-11-13T15:07:55;5.27;;;4.10;;
10910;SDS011;5508;49.150;11.030;2022-11-13T15:10:55;5.30;;;4.43;;
10910;SDS011;5508;49.150;11.030;2022-11-13T15:13:56;6.53;;;5.50;;
10910;SDS011;5508;49.150;11.030;2022-11-13T15:16:57;8.33;;;6.53;;
10910;SDS011;5508;49.150;11.030;2022-11-13T15:19:58;6.03;;;4.83;;
10910;SDS011;5508;49.150;11.030;2022-11-13T15:22:58;5.57;;;4.60;;
10910;SDS011;5508;49.150;11.030;2022-11-13T15:25:59;4.40;;;4.00;;
10910;SDS011;5508;49.150;11.030;2022-11-13T15:29:00;5.17;;;4.27;;
10910;SDS011;5508;49.150;11.030;2022-11-13T15:32:01;4.83;;;4.33;;
10910;SDS011;5508;49.150;11.030;2022-11-13T15:35:02;6.50;;;4.43;;
10910;SDS011;5508;49.150;11.030;2022-11-13T15:38:04;6.23;;;4.63;;
10910;SDS011;5508;49.150;11.030;2022-11-13T15:41:14;7.27;;;4.30;;
10910;SDS011;5508;49.150;11.030;2022-11-13T15:44:17;5.03;;;4.10;;
10910;SDS011;5508;49.150;11.030;2022-11-13T15:50:28;7.13;;;4.50;;
10910;SDS011;5508;49.150;11.030;2022-11-13T15:53:29;5.57;;;5.00;;
10910;SDS011;5508;49.150;11.030;2022-11-13T15:56:29;5.57;;;5.03;;
10910;SDS011;5508;49.150;11.030;2022-11-13T15:59:30;5.90;;;4.90;;
10910;SDS011;5508;49.150;11.030;2022-11-13T16:02:31;5.83;;;5.20;;
10910;SDS011;5508;49.150;11.030;2022-11-13T16:05:31;8.07;;;7.27;;
10910;SDS011;5508;49.150;11.030;2022-11-13T16:08:32;10.60;;;8.17;;
10910;SDS011;5508;49.150;11.030;2022-11-13T16:11:33;8.43;;;7.40;;
10910;SDS011;5508;49.150;11.030;2022-11-13T16:14:34;9.90;;;7.50;;
10910;SDS011;5508;49.150;11.030;2022-11-13T16:17:41;8.43;;;6.50;;
10910;SDS011;5508;49.150;11.030;2022-11-13T16:20:45;10.30;;;7.27;;
10910;SDS011;5508;49.150;11.030;2022-11-13T16:23:45;8.30;;;7.00;;
10910;SDS011;5508;49.150;11.030;2022-11-13T16:26:47;7.87;;;7.07;;
10910;SDS011;5508;49.150;11.030;2022-11-13T16:29:52;13.20;;;10.20;;
10910;SDS011;5508;49.150;11.030;2022-11-13T16:32:53;17.10;;;14.20;;
10910;SDS011;5508;49.150;11.030;2022-11-13T16:35:54;24.20;;;19.37;;
10910;SDS011;5508;49.150;11.030;2022-11-13T16:38:54;27.43;;;22.60;;
10910;SDS011;5508;49.150;11.030;2022-11-13T16:41:55;38.97;;;28.80;;
10910;SDS011;5508;49.150;11.030;2022-11-13T16:44:55;11.73;;;10.23;;
10910;SDS011;5508;49.150;11.030;2022-11-13T16:47:56;14.03;;;11.90;;
10910;SDS011;5508;49.150;11.030;2022-11-13T16:50:56;13.83;;;10.53;;
10910;SDS011;5508;49.150;11.030;2022-11-13T16:53:57;10.33;;;9.33;;
10910;SDS011;5508;49.150;11.030;2022-11-13T16:56:58;9.87;;;8.63;;
10910;SDS011;5508;49.150;11.030;2022-11-13T16:59:58;12.90;;;10.50;;
10910;SDS011;5508;49.150;11.030;2022-11-13T17:02:59;20.60;;;13.27;;
10910;SDS011;5508;49.150;11.030;2022-11-13T17:05:59;21.77;;;13.90;;
10910;SDS011;5508;49.150;11.030;2022-11-13T17:09:00;22.70;;;15.70;;
10910;SDS011;5508;49.150;11.030;2022-11-13T17:12:02;18.60;;;13.00;;
10910;SDS011;5508;49.150;11.030;2022-11-13T17:15:03;20.87;;;14.70;;
10910;SDS011;5508;49.150;11.030;2022-11-13T17:18:04;19.73;;;14.40;;
10910;SDS011;5508;49.150;11.030;2022-11-13T17:21:05;16.10;;;12.40;;
10910;SDS011;5508;49.150;11.030;2022-11-13T17:24:06;17.73;;;13.87;;
10910;SDS011;5508;49.150;11.030;2022-11-13T17:27:07;24.43;;;20.37;;
10910;SDS011;5508;49.150;11.030;2022-11-13T17:30:09;21.13;;;17.73;;
10910;SDS011;5508;49.150;11.030;2022-11-13T17:33:11;24.00;;;18.37;;
10910;SDS011;5508;49.150;11.030;2022-11-13T17:36:11;20.07;;;16.93;;
10910;SDS011;5508;49.150;11.030;2022-11-13T17:39:12;19.33;;;16.33;;
10910;SDS011;5508;49.150;11.030;2022-11-13T17:42:12;19.00;;;15.73;;
10910;SDS011;5508;49.150;11.030;2022-11-13T17:45:13;20.17;;;15.83;;
10910;SDS011;5508;49.150;11.030;2022-11-13T17:48:14;19.63;;;15.40;;
10910;SDS011;5508;49.150;11.030;2022-11-13T17:51:15;19.07;;;15.80;;
10910;SDS011;5508;49.150;11.030;2022-11-13T17:54:15;19.93;;;14.60;;
10910;SDS011;5508;49.150;11.030;2022-11-13T17:57:16;22.67;;;17.13;;
10910;SDS011;5508;49.150;11.030;2022-11-13T18:00:17;19.83;;;15.80;;
10910;SDS011;5508;49.150;11.030;2022-11-13T18:03:17;16.87;;;12.50;;
10910;SDS011;5508;49.150;11.030;2022-11-13T18:06:19;15.93;;;13.43;;
10910;SDS011;5508;49.150;11.030;2022-11-13T18:09:19;19.07;;;15.60;;
10910;SDS011;5508;49.150;11.030;2022-11-13T18:12:20;21.03;;;16.77;;
10910;SDS011;5508;49.150;11.030;2022-11-13T18:15:20;19.63;;;16.93;;
10910;SDS011;5508;49.150;11.030;2022-11-13T18:18:21;19.97;;;16.10;;
10910;SDS011;5508;49.150;11.030;2022-11-13T18:21:32;17.80;;;15.67;;
10910;SDS011;5508;49.150;11.030;2022-11-13T18:24:34;17.30;;;14.60;;
10910;SDS011;5508;49.150;11.030;2022-11-13T18:27:35;22.87;;;17.97;;
10910;SDS011;5508;49.150;11.030;2022-11-13T18:30:37;77.17;;;54.20;;
10910;SDS011;5508;49.150;11.030;2022-11-13T18:33:38;30.07;;;22.30;;
10910;SDS011;5508;49.150;11.030;2022-11-13T18:36:38;22.67;;;16.80;;
10910;SDS011;5508;49.150;11.030;2022-11-13T18:39:39;21.93;;;17.13;;
10910;SDS011;5508;49.150;11.030;2022-11-13T18:42:40;23.47;;;18.50;;
10910;SDS011;5508;49.150;11.030;2022-11-13T18:45:40;20.93;;;18.20;;
10910;SDS011;5508;49.150;11.030;2022-11-13T18:48:41;20.93;;;17.70;;
10910;SDS011;5508;49.150;11.030;2022-11-13T18:51:42;20.17;;;17.03;;
10910;SDS011;5508;49.150;11.030;2022-11-13T18:54:43;37.23;;;26.90;;
10910;SDS011;5508;49.150;11.030;2022-11-13T18:57:44;41.30;;;29.27;;
10910;SDS011;5508;49.150;11.030;2022-11-13T19:00:44;38.93;;;28.13;;
10910;SDS011;5508;49.150;11.030;2022-11-13T19:03:45;30.70;;;22.57;;
10910;SDS011;5508;49.150;11.030;2022-11-13T19:06:45;26.80;;;21.13;;
10910;SDS011;5508;49.150;11.030;2022-11-13T19:09:46;22.43;;;18.57;;
10910;SDS011;5508;49.150;11.030;2022-11-13T19:12:49;23.63;;;18.33;;
10910;SDS011;5508;49.150;11.030;2022-11-13T19:15:49;21.43;;;17.73;;
10910;SDS011;5508;49.150;11.030;2022-11-13T19:18:55;24.53;;;20.37;;
10910;SDS011;5508;49.150;11.030;2022-11-13T19:21:58;29.60;;;21.80;;
10910;SDS011;5508;49.150;11.030;2022-11-13T19:24:58;29.07;;;21.90;;
10910;SDS011;5508;49.150;11.030;2022-11-13T19:27:59;27.37;;;21.30;;
10910;SDS011;5508;49.150;11.030;2022-11-13T19:31:05;25.97;;;20.77;;
10910;SDS011;5508;49.150;11.030;2022-11-13T19:34:09;25.77;;;20.03;;
10910;SDS011;5508;49.150;11.030;2022-11-13T19:37:11;25.97;;;19.33;;
10910;SDS011;5508;49.150;11.030;2022-11-13T19:40:11;21.23;;;17.10;;
10910;SDS011;5508;49.150;11.030;2022-11-13T19:43:12;23.40;;;18.50;;
10910;SDS011;5508;49.150;11.030;2022-11-13T19:46:13;21.17;;;17.13;;
10910;SDS011;5508;49.150;11.030;2022-11-13T19:49:15;20.47;;;16.80;;
10910;SDS011;5508;49.150;11.030;2022-11-13T19:52:16;20.93;;;17.10;;
10910;SDS011;5508;49.150;11.030;2022-11-13T19:55:17;22.23;;;17.67;;